Terminal Aerodrome Forecast
Issued by NWS

Home | Current Version | Previous Version | Text Only | Print | Product List | Glossary On
Versions: 1 2 3 4 5 6 7 8 9 10 11 12 13 14 15 16 17 18 19 20 21 22 23 24
000
FTUS42 KTAE 051200 AAA
TAFDHN
TAF AMD
KDHN 051234Z 0513/0612 21010KT P6SM FEW014 OVC026
     FM051600 30012KT 4SM -RA BR OVC008
     FM052000 33014KT P6SM -RA OVC012
     FM060000 35014KT P6SM OVC040=

USA.gov is the U.S. government's official web portal to all federal, state and local government web resources and services.